Time;durP1;ratioP1;P1;durP2;ratioP2;P2;SDS_P1;SDS_P2;PMS_P1;PMS_P2;Temp;Humidity;BMP_temperature;BMP_pressure;BME280_temperature;BME280_humidity;BME280_pressure;Samples;Min_cycle;Max_cycle;Signal;HPM_P1;HPM_P2
2021/09/23 00:01:43;;;;;;;15.40;7.15;;;;;;;11.58;76.28;101345.03;1686948;83;20941;-81
2021/09/23 00:04:55;;;;;;;13.45;7.12;;;;;;;11.57;76.31;101337.70;1679718;83;20927;-81
2021/09/23 00:06:38;;;;;;;14.43;7.67;;;;;;;11.57;76.35;101338.13;1671003;83;20914;-81
2021/09/23 00:09:05;;;;;;;17.85;7.40;;;;;;;11.58;76.37;101336.83;1686142;83;20945;-81
2021/09/23 00:11:31;;;;;;;;;;;;;;;11.57;76.42;101329.92;1691292;83;20945;-81
2021/09/23 00:13:58;;;;;;;15.78;6.87;;;;;;;11.57;76.74;101320.86;1687275;83;20134;-81
2021/09/23 00:16:24;;;;;;;;;;;;;;;11.55;76.46;101313.53;1688675;83;20989;-81
2021/09/23 00:18:51;;;;;;;13.38;6.50;;;;;;;11.56;76.79;101314.39;1686802;83;20134;-81
2021/09/23 00:21:18;;;;;;;13.53;6.87;;;;;;;11.54;76.55;101319.59;1687257;82;682447;-81
2021/09/23 00:23:45;;;;;;;16.45;7.40;;;;;;;11.55;76.56;101324.33;1709215;82;20965;-81
2021/09/23 00:26:12;;;;;;;13.55;7.00;;;;;;;11.53;76.56;101317.02;1716686;82;20964;-81
2021/09/23 00:28:39;;;;;;;13.80;6.30;;;;;;;11.52;76.60;101321.33;1716412;82;20952;-81
2021/09/23 00:31:05;;;;;;;15.08;7.00;;;;;;;11.51;76.60;101325.23;1706353;82;20915;-81
2021/09/23 00:33:32;;;;;;;13.83;6.95;;;;;;;11.51;76.64;101326.09;1716641;81;21900;-81
2021/09/23 00:35:58;;;;;;;17.82;8.48;;;;;;;11.49;76.62;101317.47;1721316;81;20933;-81
2021/09/23 00:38:28;;;;;;;21.55;7.92;;;;;;;11.48;76.63;101316.19;1718213;81;20916;-81
2021/09/23 00:40:54;;;;;;;15.65;6.95;;;;;;;11.45;76.66;101316.22;1723252;81;20862;-81
2021/09/23 00:43:21;;;;;;;12.37;6.95;;;;;;;11.42;76.64;101313.69;1714894;81;20968;-81
2021/09/23 00:45:47;;;;;;;14.95;6.85;;;;;;;11.39;76.70;101308.09;1719011;81;25105;-81
2021/09/23 00:48:14;;;;;;;13.98;6.42;;;;;;;11.36;76.71;101320.20;1717666;81;20964;-81
2021/09/23 00:50:40;;;;;;;15.68;6.42;;;;;;;11.30;76.69;101323.70;1718280;81;20914;-81
2021/09/23 00:53:08;;;;;;;11.68;6.87;;;;;;;11.28;76.79;101322.85;1723669;81;20917;-81
2021/09/23 00:55:35;;;;;;;14.68;6.97;;;;;;;11.26;76.83;101320.70;1600580;81;10000347;-81
2021/09/23 00:58:01;;;;;;;16.30;6.62;;;;;;;11.25;76.85;101311.22;1719380;81;20948;-81
2021/09/23 01:00:28;;;;;;;14.80;6.55;;;;;;;11.24;76.88;101306.92;1720823;81;20992;-81
2021/09/23 01:02:55;;;;;;;14.33;6.53;;;;;;;11.22;76.86;101308.22;1720174;81;20937;-81
2021/09/23 01:05:21;;;;;;;12.15;5.45;;;;;;;11.19;76.85;101305.66;1720792;81;20928;-81
2021/09/23 01:07:50;;;;;;;12.82;6.85;;;;;;;11.15;76.87;101297.48;1720402;81;20945;-81
2021/09/23 01:10:19;;;;;;;21.97;7.33;;;;;;;11.13;76.91;101303.11;1713365;81;20882;-81
2021/09/23 01:12:46;;;;;;;13.10;6.45;;;;;;;11.12;76.96;101299.24;1720214;81;20972;-81
2021/09/23 01:15:19;;;;;;;18.45;7.58;;;;;;;11.10;76.95;101291.48;1718825;81;20942;-81
2021/09/23 01:17:43;;;;;;;15.10;5.85;;;;;;;11.07;76.98;101292.80;1725349;81;293404;-81
2021/09/23 01:20:11;;;;;;;17.37;6.28;;;;;;;11.04;76.99;101298.00;1723646;81;20948;-81
2021/09/23 01:22:38;;;;;;;14.03;6.22;;;;;;;11.02;77.08;101295.86;1729030;81;20920;-81
2021/09/23 01:25:06;;;;;;;;;;;;;;;11.00;77.05;101285.95;1727481;81;20965;-81
2021/09/23 01:27:33;;;;;;;14.30;5.22;;;;;;;10.98;77.31;101287.69;1720809;81;20109;-81
2021/09/23 01:30:00;;;;;;;15.40;5.72;;;;;;;10.97;77.14;101290.28;1720495;81;20928;-81
2021/09/23 01:32:26;;;;;;;13.40;5.75;;;;;;;10.94;77.14;101290.73;1720825;81;20929;-81
2021/09/23 01:34:53;;;;;;;8.45;5.25;;;;;;;10.94;77.19;101280.81;1698198;82;20957;-81
2021/09/23 01:37:19;;;;;;;13.75;5.22;;;;;;;10.94;77.21;101273.05;1700480;82;20961;-80
2021/09/23 01:39:46;;;;;;;9.60;5.42;;;;;;;10.91;77.20;101266.64;1700015;82;20859;-80
2021/09/23 01:42:12;;;;;;;10.58;5.58;;;;;;;10.90;77.23;101268.36;1699609;82;20914;-80
2021/09/23 01:44:39;;;;;;;16.40;5.15;;;;;;;10.88;77.24;101264.07;1707467;82;20914;-80
2021/09/23 01:47:05;;;;;;;13.35;5.42;;;;;;;10.85;77.28;101261.06;1700411;82;20958;-80
2021/09/23 01:49:32;;;;;;;17.67;6.35;;;;;;;10.84;77.28;101260.64;1701254;82;20981;-80
2021/09/23 01:51:58;;;;;;;16.20;5.83;;;;;;;10.81;77.29;101247.73;1699730;82;25399;-81
2021/09/23 01:54:24;;;;;;;14.85;5.95;;;;;;;10.78;77.30;101246.45;1701706;82;20914;-81
2021/09/23 01:56:53;;;;;;;10.35;4.90;;;;;;;10.76;77.31;101243.45;1698915;82;20930;-81
2021/09/23 01:59:22;;;;;;;16.57;5.37;;;;;;;10.75;77.31;101235.27;1697380;82;20948;-80
2021/09/23 02:01:48;;;;;;;12.37;4.75;;;;;;;10.73;77.37;101233.13;1695326;82;20949;-80
2021/09/23 02:04:17;;;;;;;10.82;5.15;;;;;;;10.70;77.36;101226.25;1698932;82;20930;-80
2021/09/23 02:06:43;;;;;;;15.30;5.10;;;;;;;10.68;77.37;101218.07;1699289;82;20954;-80
2021/09/23 02:09:10;;;;;;;15.05;5.42;;;;;;;10.65;77.42;101221.97;1695747;82;21315;-81
2021/09/23 02:11:36;;;;;;;13.80;5.60;;;;;;;10.62;77.43;101221.56;1698783;82;20970;-81
2021/09/23 02:14:03;;;;;;;16.17;5.75;;;;;;;10.58;77.44;101212.95;1700836;82;20961;-81
2021/09/23 02:16:29;;;;;;;13.70;5.58;;;;;;;10.56;77.47;101214.70;1700795;82;20952;-81
2021/09/23 02:18:56;;;;;;;17.48;5.97;;;;;;;10.54;77.47;101206.52;1700849;82;21387;-80
2021/09/23 02:21:22;;;;;;;13.35;5.15;;;;;;;10.51;77.52;101208.69;1700507;82;20913;-80
2021/09/23 02:23:51;;;;;;;19.95;5.67;;;;;;;10.51;77.56;101211.71;1700613;82;20925;-80
2021/09/23 02:26:18;;;;;;;16.52;5.15;;;;;;;10.49;77.61;101198.80;1700749;82;26547;-80
2021/09/23 02:28:45;;;;;;;16.37;5.12;;;;;;;10.47;77.59;101190.19;1700385;82;20890;-80
2021/09/23 02:31:11;;;;;;;15.70;5.87;;;;;;;10.46;77.60;101188.91;1699461;82;21486;-80
2021/09/23 02:33:37;;;;;;;18.27;6.05;;;;;;;10.43;77.62;101187.62;1700298;82;20928;-80
2021/09/23 02:36:07;;;;;;;13.25;7.05;;;;;;;10.42;77.68;101179.45;1699544;82;20937;-80
2021/09/23 02:38:33;;;;;;;18.25;6.22;;;;;;;10.41;77.68;101172.56;1697999;82;20957;-80
2021/09/23 02:41:00;;;;;;;14.18;5.58;;;;;;;10.40;77.71;101173.00;1699856;82;20897;-80
2021/09/23 02:43:27;;;;;;;17.87;6.75;;;;;;;10.38;77.70;101165.72;1699677;82;20962;-80
2021/09/23 02:45:53;;;;;;;16.37;6.12;;;;;;;10.38;77.80;101160.98;1702797;82;21430;-81
2021/09/23 02:48:19;;;;;;;10.58;5.42;;;;;;;10.38;77.82;101146.77;1699299;82;20922;-81
2021/09/23 02:50:46;;;;;;;14.70;6.30;;;;;;;10.38;77.82;101138.57;1699737;82;20950;-80
2021/09/23 02:53:12;;;;;;;20.80;6.08;;;;;;;10.36;77.78;101132.55;1699619;82;20875;-80
2021/09/23 02:55:40;;;;;;;13.53;6.28;;;;;;;10.33;77.86;101122.67;1698975;82;21390;-80
2021/09/23 02:58:06;;;;;;;17.62;6.40;;;;;;;10.32;77.81;101132.15;1698974;82;20870;-80
2021/09/23 03:00:33;;;;;;;23.42;6.47;;;;;;;10.29;77.87;101128.30;1698922;82;21885;-80
2021/09/23 03:02:59;;;;;;;15.55;5.85;;;;;;;10.29;77.93;101119.25;1697158;82;20926;-80
2021/09/23 03:05:25;;;;;;;16.07;5.53;;;;;;;10.27;77.91;101111.50;1645111;85;21175;-80
2021/09/23 03:07:52;;;;;;;18.95;5.78;;;;;;;10.26;77.96;101106.34;1642213;85;21072;-80
2021/09/23 03:10:18;;;;;;;11.90;5.65;;;;;;;10.26;78.01;101103.76;1646854;85;21510;-80
2021/09/23 03:12:44;;;;;;;19.67;6.05;;;;;;;10.25;77.98;101096.88;1645949;85;21057;-80
2021/09/23 03:15:29;;;;;;;19.92;6.83;;;;;;;10.23;78.01;101093.00;1649027;85;21632;-80
2021/09/23 03:17:55;;;;;;;15.95;6.03;;;;;;;10.23;78.06;101096.02;1647389;85;21112;-80
2021/09/23 03:20:24;;;;;;;19.00;6.35;;;;;;;10.21;78.09;101092.16;1646760;85;22142;-80
2021/09/23 03:22:52;;;;;;;11.97;5.45;;;;;;;10.20;78.14;101094.31;1647022;85;20989;-81
2021/09/23 03:25:21;;;;;;;16.95;5.45;;;;;;;10.20;78.14;101089.58;1646257;85;21075;-81
2021/09/23 03:27:49;;;;;;;19.30;6.25;;;;;;;10.19;78.15;101088.72;1653384;84;21745;-80
2021/09/23 03:30:16;;;;;;;18.85;6.00;;;;;;;10.18;78.16;101091.29;1663131;84;20946;-80
2021/09/23 03:32:43;;;;;;;19.48;6.55;;;;;;;10.18;78.20;101087.41;1667705;84;28215;-80
2021/09/23 03:35:18;;;;;;;23.70;6.20;;;;;;;10.17;78.20;101082.67;1666232;84;20943;-80
2021/09/23 03:37:45;;;;;;;;;;;;;;;10.16;78.25;101086.56;1662429;84;20946;-80
2021/09/23 03:40:11;;;;;;;22.05;5.55;;;;;;;10.15;78.44;101084.84;1656123;85;20157;-80
2021/09/23 03:42:38;;;;;;;;;;;;;;;10.12;78.27;101075.83;1643949;85;20959;-80
2021/09/23 03:45:05;;;;;;;18.52;5.83;;;;;;;10.10;78.51;101072.39;1662602;84;21346;-80
2021/09/23 03:47:32;;;;;;;15.78;5.62;;;;;;;10.09;78.32;101074.55;1633604;85;20976;-80
2021/09/23 03:49:58;;;;;;;12.53;5.70;;;;;;;10.07;78.33;101081.02;1659446;84;20966;-80
2021/09/23 03:52:25;;;;;;;16.62;6.25;;;;;;;10.06;78.41;101071.55;1661407;84;20883;-80
2021/09/23 03:54:52;;;;;;;14.55;5.65;;;;;;;10.07;78.41;101068.53;1643132;85;20969;-80
2021/09/23 03:57:19;;;;;;;19.12;5.53;;;;;;;10.05;78.37;101073.71;1640235;85;28052;-80
2021/09/23 03:59:48;;;;;;;17.95;6.20;;;;;;;10.03;78.43;101062.53;1645721;85;20957;-80
2021/09/23 04:02:15;;;;;;;19.40;6.62;;;;;;;10.02;78.46;101059.52;1636076;86;21815;-81
2021/09/23 04:04:42;;;;;;;16.35;7.25;;;;;;;10.01;78.48;101063.41;1651445;85;20953;-81
2021/09/23 04:07:08;;;;;;;17.62;6.67;;;;;;;9.99;78.49;101059.97;1641349;84;20953;-81
2021/09/23 04:09:34;;;;;;;21.07;6.40;;;;;;;9.98;78.49;101050.08;1663503;84;21440;-81
2021/09/23 04:12:01;;;;;;;22.07;6.85;;;;;;;9.98;78.56;101044.05;1666107;84;20918;-80
2021/09/23 04:14:27;;;;;;;18.12;5.90;;;;;;;9.96;78.51;101045.34;1664315;84;20946;-80
2021/09/23 04:16:56;;;;;;;18.17;6.12;;;;;;;9.94;78.56;101044.06;1665248;84;20958;-81
2021/09/23 04:19:22;;;;;;;19.32;5.90;;;;;;;9.93;78.57;101047.52;1642647;84;530904;-81
2021/09/23 04:21:49;;;;;;;25.82;5.85;;;;;;;9.92;78.60;101047.09;1637379;85;20871;-81
2021/09/23 04:24:16;;;;;;;14.93;5.33;;;;;;;9.90;78.62;101042.38;1637747;86;20914;-84
2021/09/23 04:26:43;;;;;;;15.60;6.15;;;;;;;9.90;78.64;101045.39;1636182;85;20914;-81
2021/09/23 04:29:11;;;;;;;19.77;5.78;;;;;;;9.88;78.67;101044.11;1648750;86;21423;-80
2021/09/23 04:31:38;;;;;;;16.65;5.78;;;;;;;9.88;78.73;101051.86;1650695;85;20918;-82
2021/09/23 04:34:04;;;;;;;16.48;5.58;;;;;;;9.89;78.73;101046.25;1646108;85;20929;-81
2021/09/23 04:36:31;;;;;;;12.85;5.50;;;;;;;9.89;78.76;101044.53;1650075;85;20946;-82
2021/09/23 04:38:57;;;;;;;16.62;6.28;;;;;;;9.88;78.76;101036.79;1649877;85;20882;-83
2021/09/23 04:41:23;;;;;;;21.50;7.17;;;;;;;9.88;78.80;101036.79;1638609;86;20929;-82
2021/09/23 04:43:50;;;;;;;16.57;5.97;;;;;;;9.87;78.84;101041.13;1665248;84;23788;-82
2021/09/23 04:46:24;;;;;;;20.77;6.92;;;;;;;9.87;78.84;101035.97;1666969;84;20879;-82
2021/09/23 04:48:53;;;;;;;18.82;6.28;;;;;;;9.87;78.84;101035.97;1672767;84;20947;-82
2021/09/23 04:51:22;;;;;;;18.85;6.65;;;;;;;9.85;78.84;101037.70;1660721;84;21461;-82
2021/09/23 04:53:49;;;;;;;16.15;6.70;;;;;;;9.86;78.87;101030.81;1667014;84;20962;-82
2021/09/23 04:56:17;;;;;;;18.85;7.47;;;;;;;9.88;78.89;101023.44;1666468;84;21364;-82
2021/09/23 04:58:43;;;;;;;13.18;7.40;;;;;;;9.88;78.93;101007.95;1664896;84;20976;-82
2021/09/23 05:01:09;;;;;;;17.25;7.67;;;;;;;9.89;78.96;101009.66;1665338;84;20944;-82
2021/09/23 05:03:36;;;;;;;18.02;7.28;;;;;;;9.89;78.96;101004.93;1662100;84;21396;-81
2021/09/23 05:06:02;;;;;;;22.32;6.78;;;;;;;9.89;79.02;101003.63;1648749;85;21397;-81
2021/09/23 05:08:28;;;;;;;14.63;6.42;;;;;;;9.91;79.03;101007.06;1666185;84;21352;-81
2021/09/23 05:10:55;;;;;;;21.62;6.92;;;;;;;9.92;79.05;101004.47;1650222;85;20894;-81
2021/09/23 05:13:21;;;;;;;21.60;7.53;;;;;;;9.95;79.10;101005.74;1636583;86;21771;-81
2021/09/23 05:15:47;;;;;;;15.60;6.62;;;;;;;10.00;79.14;100998.39;1646092;85;21431;-81
2021/09/23 05:18:14;;;;;;;23.87;7.05;;;;;;;10.04;79.16;100992.34;1646006;85;21601;-81
2021/09/23 05:20:40;;;;;;;21.30;7.67;;;;;;;10.08;79.17;100993.59;1643542;85;21502;-81
2021/09/23 05:23:07;;;;;;;15.65;7.15;;;;;;;10.10;79.18;100981.52;1643885;84;21601;-81
2021/09/23 05:25:35;;;;;;;18.95;7.37;;;;;;;10.13;79.20;100980.64;1635354;85;21567;-81
2021/09/23 05:28:07;;;;;;;14.30;5.90;;;;;;;10.16;79.24;100978.88;1637608;86;21414;-81
2021/09/23 05:30:33;;;;;;;15.13;7.28;;;;;;;10.19;79.25;100975.02;1647087;84;20981;-81
2021/09/23 05:33:00;;;;;;;14.45;6.70;;;;;;;10.22;79.32;100971.11;1649477;84;21367;-81
2021/09/23 05:35:26;;;;;;;18.60;7.53;;;;;;;10.27;79.32;100969.78;1657879;84;21394;-81
2021/09/23 05:37:52;;;;;;;15.10;7.67;;;;;;;10.32;79.39;100969.74;1662794;84;20902;-81
2021/09/23 05:40:25;;;;;;;14.93;6.35;;;;;;;10.37;79.56;100971.84;1661963;84;21401;-81
2021/09/23 05:42:51;;;;;;;16.73;7.62;;;;;;;10.42;79.41;100973.48;1663237;84;21451;-81
2021/09/23 05:45:17;;;;;;;14.30;6.92;;;;;;;10.48;79.48;100975.16;1664082;84;22151;-81
2021/09/23 05:47:44;;;;;;;19.32;7.17;;;;;;;10.55;79.51;100972.94;1664541;84;21477;-81
2021/09/23 05:50:12;;;;;;;18.98;7.15;;;;;;;10.62;79.50;100974.58;1663497;84;21410;-81
2021/09/23 05:52:39;;;;;;;19.42;7.92;;;;;;;10.67;79.54;100966.78;1664079;84;21406;-81
2021/09/23 05:55:11;;;;;;;14.55;7.53;;;;;;;10.72;79.55;100961.98;1664582;84;21447;-81
2021/09/23 05:57:37;;;;;;;23.83;8.85;;;;;;;10.79;79.54;100971.82;1668557;83;21406;-81
2021/09/23 06:00:16;;;;;;;22.67;8.15;;;;;;;10.85;79.58;100970.45;1666224;84;20889;-81
2021/09/23 06:02:44;;;;;;;18.65;7.55;;;;;;;10.92;79.62;100965.60;1662321;84;21401;-81
2021/09/23 06:05:12;;;;;;;27.20;8.73;;;;;;;10.99;79.63;100962.50;1662693;84;21443;-81
2021/09/23 06:07:42;;;;;;;17.40;8.08;;;;;;;11.04;79.63;100965.45;1663712;84;21461;-81
2021/09/23 06:10:10;;;;;;;17.32;8.70;;;;;;;11.09;79.65;100966.26;1663265;84;20920;-81
2021/09/23 06:12:37;;;;;;;20.75;8.45;;;;;;;11.15;79.65;100961.00;1662594;84;21442;-81
2021/09/23 06:15:07;;;;;;;15.98;8.85;;;;;;;11.20;79.63;100948.86;1663899;84;21362;-81
2021/09/23 06:17:33;;;;;;;16.20;7.90;;;;;;;11.25;79.70;100950.09;1663208;84;20910;-81
2021/09/23 06:20:00;;;;;;;18.87;9.10;;;;;;;11.30;79.70;100944.42;1657419;84;21450;-81
2021/09/23 06:22:27;;;;;;;24.55;9.53;;;;;;;11.38;79.76;100944.31;1662892;84;21465;-81
2021/09/23 06:24:53;;;;;;;23.22;9.48;;;;;;;11.45;79.76;100940.73;1663226;84;21417;-81
2021/09/23 06:27:20;;;;;;;19.80;8.65;;;;;;;11.54;79.84;100938.01;1661609;84;21471;-81
2021/09/23 06:29:46;;;;;;;25.05;10.28;;;;;;;11.66;79.83;100937.83;1660778;84;21434;-81
2021/09/23 06:32:13;;;;;;;23.80;10.23;;;;;;;11.76;79.87;100931.63;1660834;84;20912;-81
2021/09/23 06:34:40;;;;;;;17.98;10.20;;;;;;;11.88;79.89;100926.28;1666960;84;20923;-81
2021/09/23 06:37:06;;;;;;;21.00;9.85;;;;;;;12.00;79.87;100924.34;1701116;82;21370;-81
2021/09/23 06:39:33;;;;;;;26.62;11.25;;;;;;;12.13;79.93;100921.52;1659496;84;20925;-81
2021/09/23 06:41:59;;;;;;;19.67;10.58;;;;;;;12.27;79.94;100926.45;1659716;84;20952;-81
2021/09/23 06:44:26;;;;;;;17.70;11.15;;;;;;;12.38;79.92;100923.23;1660554;84;21461;-81
2021/09/23 06:46:52;;;;;;;21.33;11.12;;;;;;;12.51;79.92;100927.28;1706643;82;21380;-81
2021/09/23 06:49:20;;;;;;;17.25;9.95;;;;;;;12.65;79.93;100926.16;1705433;82;21452;-81
2021/09/23 06:51:46;;;;;;;22.62;11.15;;;;;;;12.75;79.92;100917.31;1703515;82;21394;-81
2021/09/23 06:54:19;;;;;;;23.18;11.20;;;;;;;12.85;79.89;100914.95;1694325;81;21457;-81
2021/09/23 06:56:45;;;;;;;22.80;11.12;;;;;;;12.91;79.84;100916.12;1690222;83;21521;-81
2021/09/23 06:59:12;;;;;;;18.23;10.68;;;;;;;12.94;79.79;100914.75;1691160;83;21084;-81
2021/09/23 07:01:38;;;;;;;22.60;11.28;;;;;;;12.96;79.80;100910.83;1687906;83;21551;-81
2021/09/23 07:04:05;;;;;;;19.17;11.38;;;;;;;12.97;79.78;100905.61;1694816;83;22135;-81
2021/09/23 07:06:31;;;;;;;22.32;12.85;;;;;;;12.96;79.78;100899.15;1694637;83;21576;-81
2021/09/23 07:08:57;;;;;;;24.47;11.80;;;;;;;12.97;79.80;100906.05;1689152;83;21602;-81
2021/09/23 07:11:24;;;;;;;24.70;12.53;;;;;;;12.97;79.81;100907.34;1686533;83;21109;-81
2021/09/23 07:13:50;;;;;;;21.07;12.78;;;;;;;12.98;79.84;100898.23;1690917;83;21539;-81
2021/09/23 07:16:16;;;;;;;20.95;12.95;;;;;;;12.98;79.85;100902.13;1701024;82;21087;-81
2021/09/23 07:18:43;;;;;;;18.40;11.45;;;;;;;12.98;79.84;100901.27;1698369;83;21010;-81
2021/09/23 07:21:09;;;;;;;18.75;12.90;;;;;;;12.98;79.87;100899.53;1697584;83;21574;-82
2021/09/23 07:23:35;;;;;;;21.87;14.28;;;;;;;12.96;79.87;100898.70;1696507;82;21675;-82
2021/09/23 07:26:02;;;;;;;25.25;14.10;;;;;;;12.96;79.91;100894.81;1690344;83;21516;-81
2021/09/23 07:28:29;;;;;;;;;;;;;;;12.97;79.89;100896.52;1693287;83;21608;-81
2021/09/23 07:30:55;;;;;;;23.67;12.47;;;;;;;12.97;79.97;100899.56;1695084;83;20117;-81
2021/09/23 07:33:21;;;;;;;28.23;14.18;;;;;;;12.93;79.91;100910.01;1689794;83;21522;-81
2021/09/23 07:35:54;;;;;;;20.68;13.58;;;;;;;12.93;79.92;100908.70;1676015;83;21523;-81
2021/09/23 07:38:21;;;;;;;27.15;13.70;;;;;;;12.92;79.92;100905.70;1670197;83;21018;-81
2021/09/23 07:40:48;;;;;;;;;;;;;;;12.95;79.98;100909.97;1673872;84;21530;-81
2021/09/23 07:43:18;;;;;;;22.93;12.37;;;;;;;13.00;80.15;100907.28;1673176;84;20216;-81
2021/09/23 07:45:44;;;;;;;21.82;14.30;;;;;;;13.07;80.06;100901.89;1668861;84;21087;-81
2021/09/23 07:48:11;;;;;;;24.25;15.23;;;;;;;13.13;80.00;100905.66;1667824;83;21583;-81
2021/09/23 07:50:37;;;;;;;26.17;15.18;;;;;;;13.18;79.96;100908.19;1667242;84;21790;-81
2021/09/23 07:53:04;;;;;;;31.77;15.40;;;;;;;13.19;79.92;100906.86;1669606;84;21086;-81
2021/09/23 07:55:30;;;;;;;21.25;14.05;;;;;;;13.22;79.92;100906.79;1670559;84;25488;-81
2021/09/23 07:57:57;;;;;;;21.27;13.55;;;;;;;13.24;79.92;100901.12;1665499;84;21076;-81
2021/09/23 08:00:23;;;;;;;25.25;15.03;;;;;;;13.26;79.92;100886.80;1665709;84;21116;-81
2021/09/23 08:02:51;;;;;;;25.97;15.40;;;;;;;13.25;79.85;100876.00;1671473;84;21557;-81
2021/09/23 08:05:18;;;;;;;26.02;15.63;;;;;;;13.24;79.86;100873.85;1666004;84;21587;-81
2021/09/23 08:07:45;;;;;;;21.55;15.10;;;;;;;13.25;79.87;100870.36;1668929;84;21070;-81
2021/09/23 08:10:11;;;;;;;20.12;14.70;;;;;;;13.24;79.86;100856.97;1672350;84;21021;-81
2021/09/23 08:12:38;;;;;;;26.95;15.78;;;;;;;13.24;79.94;100846.59;1673251;84;21100;-81
2021/09/23 08:15:05;;;;;;;;;;;;;;;13.33;80.04;100839.02;1667751;84;21035;-81
2021/09/23 08:17:31;;;;;;;28.92;14.98;;;;;;;13.41;80.14;100836.25;1655564;84;20203;-81
2021/09/23 08:19:58;;;;;;;26.50;16.17;;;;;;;13.49;80.00;100834.31;1666037;84;21020;-81
2021/09/23 08:22:24;;;;;;;28.50;17.37;;;;;;;13.55;79.98;100836.29;1671892;84;20963;-81
2021/09/23 08:24:50;;;;;;;28.57;16.57;;;;;;;13.57;79.88;100835.80;1669367;84;21100;-82
2021/09/23 08:27:17;;;;;;;27.67;16.75;;;;;;;13.59;79.87;100830.13;1670037;84;21022;-81
2021/09/23 08:29:45;;;;;;;26.70;15.78;;;;;;;13.62;79.89;100825.30;1671959;84;21150;-81
2021/09/23 08:32:11;;;;;;;29.23;17.17;;;;;;;13.65;79.87;100823.92;1667990;84;21067;-81
2021/09/23 08:34:41;;;;;;;30.75;17.15;;;;;;;13.66;79.80;100815.23;1673911;84;21313;-81
2021/09/23 08:37:07;;;;;;;32.63;18.45;;;;;;;13.65;79.83;100810.93;1699725;82;21124;-81
2021/09/23 08:39:34;;;;;;;32.98;18.70;;;;;;;13.65;79.82;100810.93;1701443;82;21089;-81
2021/09/23 08:42:00;;;;;;;30.37;18.40;;;;;;;13.66;79.84;100814.38;1700887;82;21072;-81
2021/09/23 08:44:28;;;;;;;27.65;19.12;;;;;;;13.66;79.83;100813.94;1702447;82;20937;-81
2021/09/23 08:46:57;;;;;;;33.10;20.23;;;;;;;13.66;79.82;100818.28;1658261;84;21116;-81
2021/09/23 08:49:23;;;;;;;26.10;18.12;;;;;;;13.65;79.82;100814.83;1650367;85;21137;-81
2021/09/23 08:51:49;;;;;;;32.15;20.08;;;;;;;13.68;79.90;100797.01;1658071;84;20920;-81
2021/09/23 08:54:17;;;;;;;31.60;20.10;;;;;;;13.70;79.85;100790.02;1657129;84;21061;-82
2021/09/23 08:56:45;;;;;;;33.75;20.60;;;;;;;13.70;79.85;100775.28;1656207;84;21128;-81
2021/09/23 08:59:12;;;;;;;30.68;20.25;;;;;;;13.70;79.78;100770.09;1654982;84;21381;-81
2021/09/23 09:01:49;;;;;;;35.00;19.70;;;;;;;13.71;79.85;100762.70;1654965;84;21648;-81
2021/09/23 09:04:18;;;;;;;32.58;20.12;;;;;;;13.73;79.82;100755.72;1666884;84;20922;-81
2021/09/23 09:06:56;;;;;;;35.28;20.82;;;;;;;13.75;79.79;100747.43;1661887;84;20883;-81
2021/09/23 09:09:23;;;;;;;32.50;19.90;;;;;;;13.78;79.85;100743.89;1653948;85;20962;-81
2021/09/23 09:11:53;;;;;;;35.33;21.95;;;;;;;13.82;79.84;100739.02;1653086;85;20990;-81
2021/09/23 09:14:28;;;;;;;33.63;19.73;;;;;;;13.87;79.89;100738.00;1631997;86;20895;-81
2021/09/23 09:17:02;;;;;;;33.33;20.85;;;;;;;13.94;79.88;100731.34;1644499;85;20950;-81
2021/09/23 09:19:57;;;;;;;32.98;19.77;;;;;;;14.02;79.85;100727.63;1645629;85;20898;-81
2021/09/23 09:22:27;;;;;;;30.32;19.65;;;;;;;14.08;79.82;100717.47;1644364;84;20990;-81
2021/09/23 09:24:58;;;;;;;32.63;20.57;;;;;;;14.15;79.83;100715.95;1633211;86;20923;-81
2021/09/23 09:27:34;;;;;;;31.85;20.27;;;;;;;14.19;79.78;100715.41;1633958;86;20908;-81
2021/09/23 09:30:13;;;;;;;36.00;21.05;;;;;;;14.23;79.76;100710.08;1633169;86;20993;-81
2021/09/23 09:32:56;;;;;;;31.73;19.25;;;;;;;14.24;79.71;100689.67;1650978;85;20945;-81
2021/09/23 09:35:26;;;;;;;32.33;19.57;;;;;;;14.29;79.75;100700.39;1643146;83;162375;-81
2021/09/23 09:38:04;;;;;;;32.35;19.50;;;;;;;14.31;79.71;100686.89;1722690;81;20921;-81
2021/09/23 09:40:38;;;;;;;29.52;21.02;;;;;;;14.34;79.74;100679.84;1719242;81;20929;-81
2021/09/23 09:43:13;;;;;;;29.87;20.05;;;;;;;14.37;79.67;100679.75;1718567;81;20952;-81
2021/09/23 09:45:41;;;;;;;26.77;19.45;;;;;;;14.39;79.66;100661.05;1718452;81;20929;-81
2021/09/23 09:48:15;;;;;;;32.08;20.35;;;;;;;14.46;79.73;100644.37;1666137;83;20966;-81
2021/09/23 09:50:43;;;;;;;38.23;20.23;;;;;;;14.52;79.72;100646.79;1668323;83;20900;-81
2021/09/23 09:53:13;;;;;;;29.23;20.45;;;;;;;14.59;79.68;100638.30;1673191;84;20976;-81
2021/09/23 09:55:44;;;;;;;32.13;20.55;;;;;;;14.64;79.63;100651.17;1675472;83;20931;-81
2021/09/23 09:58:13;;;;;;;34.60;20.77;;;;;;;14.68;79.61;100654.08;1645655;83;20900;-81
2021/09/23 10:00:40;;;;;;;24.35;19.45;;;;;;;14.70;79.57;100658.78;1671400;83;20921;-81
2021/09/23 10:03:06;;;;;;;36.45;21.73;;;;;;;14.72;79.60;100656.53;1662068;84;20940;-81
2021/09/23 10:05:32;;;;;;;30.15;19.57;;;;;;;14.72;79.48;100651.33;1665670;84;20909;-81
2021/09/23 10:08:00;;;;;;;26.93;20.05;;;;;;;14.71;79.51;100637.91;1608675;84;2769342;-81
2021/09/23 10:10:31;;;;;;;34.60;21.87;;;;;;;14.72;79.51;100630.50;1657790;83;20963;-81
2021/09/23 10:13:02;;;;;;;31.33;19.87;;;;;;;14.72;79.47;100613.59;1660738;84;20944;-81
2021/09/23 10:15:30;;;;;;;28.95;19.62;;;;;;;14.70;79.43;100601.08;1676683;83;20939;-81
2021/09/23 10:18:00;;;;;;;;;;;;;;;14.71;79.46;100600.63;1679714;83;20979;-81
2021/09/23 10:20:25;;;;;;;28.75;18.90;;;;;;;14.74;79.40;100604.42;1665593;83;20113;-81
2021/09/23 10:22:53;;;;;;;31.12;19.55;;;;;;;14.77;79.43;100590.86;1718650;81;20909;-81
2021/09/23 10:25:24;;;;;;;31.73;18.98;;;;;;;14.82;79.49;100595.91;1725806;81;23576;-81
2021/09/23 10:28:06;;;;;;;31.15;19.77;;;;;;;14.88;79.42;100588.75;1716855;81;20952;-81
2021/09/23 10:30:36;;;;;;;31.02;19.23;;;;;;;14.97;79.40;100576.31;1714830;81;20925;-81
2021/09/23 10:33:04;;;;;;;33.13;19.40;;;;;;;15.05;79.42;100571.24;1716877;81;20968;-81
2021/09/23 10:35:31;;;;;;;26.20;18.37;;;;;;;15.14;79.40;100563.08;1719237;81;20913;-81
2021/09/23 10:38:05;;;;;;;28.45;19.60;;;;;;;15.29;79.42;100565.59;1700541;82;20924;-81
2021/09/23 10:40:34;;;;;;;27.42;18.55;;;;;;;15.44;79.39;100570.24;1700005;82;20953;-81
2021/09/23 10:43:06;;;;;;;30.82;20.23;;;;;;;15.57;79.29;100560.70;1699926;82;20909;-81
2021/09/23 10:45:35;;;;;;;30.00;20.30;;;;;;;15.67;79.21;100560.27;1705514;82;20953;-81
2021/09/23 10:48:03;;;;;;;27.70;19.30;;;;;;;15.74;79.02;100565.64;1699452;82;20961;-81
2021/09/23 10:50:33;;;;;;;28.02;18.73;;;;;;;15.73;78.96;100553.97;1699011;82;20922;-81
2021/09/23 10:53:01;;;;;;;27.02;18.80;;;;;;;15.74;79.00;100557.83;1703517;82;20929;-81
2021/09/23 10:55:34;;;;;;;26.27;17.55;;;;;;;15.79;79.00;100549.83;1698789;82;20949;-81
2021/09/23 10:58:00;;;;;;;29.07;18.82;;;;;;;15.79;78.94;100545.92;1697730;82;20950;-81
2021/09/23 11:00:31;;;;;;;24.23;17.70;;;;;;;15.79;78.86;100541.55;1698719;82;20914;-81
2021/09/23 11:03:00;;;;;;;28.62;17.20;;;;;;;15.82;78.89;100539.28;1697203;82;20922;-81
2021/09/23 11:05:29;;;;;;;26.62;17.70;;;;;;;15.83;78.87;100536.61;1699840;82;20934;-81
2021/09/23 11:07:55;;;;;;;31.37;17.82;;;;;;;15.84;78.80;100527.03;1679433;82;20961;-81
2021/09/23 11:10:24;;;;;;;25.60;19.92;;;;;;;15.82;78.76;100519.27;1700641;82;20937;-81
2021/09/23 11:12:57;;;;;;;31.87;18.20;;;;;;;15.80;78.68;100518.94;1697850;82;20967;-81
2021/09/23 11:15:28;;;;;;;23.20;17.48;;;;;;;15.78;78.66;100512.48;1699710;82;20934;-81
2021/09/23 11:17:58;;;;;;;23.38;17.32;;;;;;;15.77;78.63;100509.48;1699370;82;20926;-81
2021/09/23 11:20:29;;;;;;;25.57;16.05;;;;;;;15.76;78.63;100507.78;1698429;82;20922;-81